Quartzsite, Arizona
Current Conditions -  °F | °C
As of 4:52 AM on Saturday 25 Oct 2014 (Local Time) from KBLH Reporting Station
Clear Clear  
Wind Chill: 67°   Ceiling: Unl
Heat Index: 67°   Visibility: 10mi
Dew Point: 44°   Wind: 5mph
Humidity: 44%   Direction: 30°NNE
Pressure: 29.93"   Gusts: NA
Location:  33.67°N, 114.22°W
Report Text: KBLH 251152Z AUTO 03004KT 10SM CLR 19/07 A2993 RMK AO2 SLP128 T01940067 10250 20194 55005
Loading
Personal Weather Stations






























Interactive Weather Map
Tropical Storm Tracking
New forecast layout! Learn more

10-Day Weather Forecast

Advertisements
Track Severe Weather on mobile